Time;durP1;ratioP1;P1;durP2;ratioP2;P2;SDS_P1;SDS_P2;PMS_P1;PMS_P2;Temp;Humidity;BMP_temperature;BMP_pressure;BME280_temperature;BME280_humidity;BME280_pressure;Samples;Min_cycle;Max_cycle;Signal;HPM_P1;HPM_P2
2024/01/19 00:02:11;;;;;;;2.27;0.10;;;-0.60;99.90;;;;;;6282657;22;20370;-31
2024/01/19 00:04:36;;;;;;;0.93;0.10;;;-0.20;99.90;;;;;;6283441;22;20042;-31
2024/01/19 00:07:02;;;;;;;2.35;0.10;;;0.00;99.90;;;;;;6309969;22;20007;-31
2024/01/19 00:09:28;;;;;;;4.10;0.40;;;0.00;99.90;;;;;;6282580;22;20011;-30
2024/01/19 00:11:54;;;;;;;0.40;0.10;;;0.00;99.90;;;;;;6309857;22;20175;-32
2024/01/19 00:14:19;;;;;;;3.17;0.40;;;0.00;99.90;;;;;;6310279;22;20011;-31
2024/01/19 00:16:45;;;;;;;2.23;0.33;;;-0.10;99.90;;;;;;6282477;22;20061;-31
2024/01/19 00:19:10;;;;;;;0.37;0.07;;;-0.10;99.90;;;;;;6310541;22;20018;-32
2024/01/19 00:21:46;;;;;;;2.37;0.20;;;0.20;99.90;;;;;;6283556;22;20015;-32
2024/01/19 00:24:13;;;;;;;0.73;0.30;;;-0.10;99.90;;;;;;6309787;22;20015;-33
2024/01/19 00:26:39;;;;;;;0.73;0.13;;;0.00;99.90;;;;;;6309765;22;20287;-33
2024/01/19 00:29:05;;;;;;;3.13;0.20;;;0.00;99.90;;;;;;6310704;22;20042;-31
2024/01/19 00:31:31;;;;;;;5.40;0.53;;;-0.10;99.90;;;;;;6309318;22;20488;-33
2024/01/19 00:33:57;;;;;;;0.80;0.10;;;-0.20;99.90;;;;;;6282352;22;20043;-32
2024/01/19 00:36:23;;;;;;;1.03;0.50;;;0.20;99.90;;;;;;6282205;22;20011;-32
2024/01/19 00:38:48;;;;;;;2.10;0.70;;;-0.10;99.90;;;;;;6309616;22;20089;-32
2024/01/19 00:41:16;;;;;;;2.80;0.33;;;0.00;99.90;;;;;;6282258;22;20015;-31
2024/01/19 00:43:42;;;;;;;0.80;0.20;;;0.10;99.90;;;;;;6256724;22;20046;-32
2024/01/19 00:46:08;;;;;;;3.70;0.40;;;-0.10;99.90;;;;;;6257204;22;20014;-33
2024/01/19 00:48:34;;;;;;;5.03;0.97;;;0.00;99.90;;;;;;6309519;22;20043;-32
2024/01/19 00:50:59;;;;;;;0.53;0.07;;;-0.20;99.90;;;;;;6282270;22;20048;-32
2024/01/19 00:53:25;;;;;;;1.47;0.70;;;-0.30;99.90;;;;;;6256620;22;20315;-31
2024/01/19 00:55:51;;;;;;;0.77;0.20;;;-0.20;99.90;;;;;;6256858;22;20082;-32
2024/01/19 00:58:16;;;;;;;1.17;0.20;;;-0.30;99.90;;;;;;6309440;22;20076;-32
2024/01/19 01:00:42;;;;;;;0.67;0.20;;;-0.30;99.90;;;;;;6231251;22;20430;-32
2024/01/19 01:03:08;;;;;;;2.43;0.30;;;-0.20;99.90;;;;;;6281797;22;20086;-32
2024/01/19 01:05:34;;;;;;;6.83;0.30;;;-0.40;99.90;;;;;;6309348;22;20016;-33
2024/01/19 01:08:00;;;;;;;6.83;0.57;;;-0.50;99.90;;;;;;6282222;22;20015;-32
2024/01/19 01:10:25;;;;;;;1.83;0.10;;;-0.30;99.90;;;;;;6282170;22;20088;-32
2024/01/19 01:12:51;;;;;;;2.93;0.27;;;-0.40;99.90;;;;;;6206563;22;20026;-33
2024/01/19 01:15:17;;;;;;;2.73;0.50;;;-0.50;99.90;;;;;;6309533;22;20011;-33
2024/01/19 01:17:43;;;;;;;2.30;0.50;;;-0.50;99.90;;;;;;6309667;22;20011;-32
2024/01/19 01:20:11;;;;;;;1.73;0.40;;;-0.60;99.90;;;;;;6282041;22;20011;-32
2024/01/19 01:22:39;;;;;;;3.93;0.40;;;-0.60;99.90;;;;;;6282253;22;20369;-34
2024/01/19 01:25:04;;;;;;;3.70;0.53;;;-0.70;99.90;;;;;;6309569;22;20022;-33
2024/01/19 01:27:30;;;;;;;1.30;0.23;;;-0.60;99.90;;;;;;6309189;22;20381;-33
2024/01/19 01:29:56;;;;;;;1.40;0.30;;;-0.70;99.90;;;;;;6281897;22;20007;-33
2024/01/19 01:32:21;;;;;;;5.83;0.77;;;-0.70;99.90;;;;;;6309133;22;20090;-32
2024/01/19 01:34:47;;;;;;;3.93;0.67;;;-0.50;99.90;;;;;;6309158;22;20012;-33
2024/01/19 01:37:13;;;;;;;4.47;0.40;;;-0.70;99.90;;;;;;6282047;22;20015;-32
2024/01/19 01:39:38;;;;;;;5.87;0.43;;;-0.70;99.90;;;;;;6309001;22;20434;-33
2024/01/19 01:42:04;;;;;;;3.07;0.50;;;-0.80;99.90;;;;;;6309038;22;20023;-32
2024/01/19 01:44:30;;;;;;;2.00;0.47;;;-0.90;99.90;;;;;;6308917;22;20050;-32
2024/01/19 01:46:56;;;;;;;4.18;0.63;;;-0.90;99.90;;;;;;6309253;22;20015;-32
2024/01/19 01:49:21;;;;;;;8.60;1.03;;;-0.90;99.90;;;;;;6308890;22;20041;-33
2024/01/19 01:51:47;;;;;;;6.90;0.70;;;-0.90;99.90;;;;;;6308987;22;20291;-32
2024/01/19 01:54:14;;;;;;;5.50;0.50;;;-1.00;99.90;;;;;;6309235;22;20350;-33
2024/01/19 01:56:40;;;;;;;9.30;0.53;;;-1.00;99.90;;;;;;6309572;22;20007;-32
2024/01/19 01:59:10;;;;;;;6.03;0.50;;;-0.90;99.90;;;;;;6281579;22;20011;-33
2024/01/19 02:01:36;;;;;;;1.23;0.50;;;-0.90;99.90;;;;;;6281557;22;20376;-31
2024/01/19 02:04:02;;;;;;;2.20;0.60;;;-0.90;99.90;;;;;;6308404;22;20332;-33
2024/01/19 02:06:28;;;;;;;5.70;0.43;;;-0.80;99.90;;;;;;6309175;22;20427;-32
2024/01/19 02:08:54;;;;;;;7.27;0.70;;;-0.80;99.90;;;;;;6308678;22;20026;-31
2024/01/19 02:11:20;;;;;;;3.87;0.50;;;-0.80;99.90;;;;;;6309736;22;20011;-31
2024/01/19 02:13:46;;;;;;;1.37;0.40;;;-0.70;99.90;;;;;;6282179;22;20022;-31
2024/01/19 02:16:11;;;;;;;4.80;0.50;;;-0.70;99.90;;;;;;6308295;22;20007;-32
2024/01/19 02:18:37;;;;;;;4.97;0.47;;;-0.60;99.90;;;;;;6255892;22;20015;-32
2024/01/19 02:21:03;;;;;;;2.17;0.73;;;-0.60;99.90;;;;;;6308949;22;20307;-31
2024/01/19 02:23:40;;;;;;;4.60;0.60;;;-0.60;99.90;;;;;;6308663;22;20086;-33
2024/01/19 02:26:06;;;;;;;6.60;0.40;;;-0.60;99.90;;;;;;6282114;22;20011;-31
2024/01/19 02:28:32;;;;;;;4.70;0.40;;;-0.60;99.90;;;;;;6308608;22;20024;-32
2024/01/19 02:30:57;;;;;;;2.20;0.50;;;-0.80;99.90;;;;;;6309251;22;20023;-31
2024/01/19 02:33:23;;;;;;;5.77;1.30;;;-0.90;99.90;;;;;;6309302;22;20011;-32
2024/01/19 02:35:49;;;;;;;8.60;1.17;;;-1.00;99.90;;;;;;6281952;22;20456;-31
2024/01/19 02:38:14;;;;;;;4.73;0.80;;;-1.00;99.90;;;;;;6308439;22;20015;-32
2024/01/19 02:40:41;;;;;;;5.17;1.20;;;-1.00;99.90;;;;;;6281170;22;20073;-31
2024/01/19 02:43:06;;;;;;;7.80;1.30;;;-1.10;99.90;;;;;;6281067;22;20326;-31
2024/01/19 02:45:32;;;;;;;8.53;1.50;;;-1.20;99.90;;;;;;6308410;22;20092;-31
2024/01/19 02:47:58;;;;;;;6.73;1.60;;;-1.20;99.90;;;;;;6281682;22;20298;-31
2024/01/19 02:50:24;;;;;;;8.50;1.30;;;-1.40;99.90;;;;;;6280885;22;20018;-32
2024/01/19 02:52:50;;;;;;;13.43;1.53;;;-1.30;99.90;;;;;;6281135;22;20076;-32
2024/01/19 02:55:16;;;;;;;11.30;1.87;;;-1.40;99.90;;;;;;6308259;22;20311;-31
2024/01/19 02:57:41;;;;;;;11.90;1.90;;;-1.30;99.90;;;;;;6282037;22;20069;-33
2024/01/19 03:00:08;;;;;;;13.00;2.00;;;-1.40;99.90;;;;;;6281157;22;20065;-31
2024/01/19 03:02:33;;;;;;;9.03;1.53;;;-1.40;99.90;;;;;;6255334;22;20011;-32
2024/01/19 03:04:59;;;;;;;6.30;2.47;;;-1.40;99.90;;;;;;6309374;22;20022;-31
2024/01/19 03:07:25;;;;;;;10.47;2.63;;;-1.50;99.90;;;;;;6307859;22;20443;-31
2024/01/19 03:09:50;;;;;;;4.60;0.80;;;-1.50;99.90;;;;;;6280963;22;20015;-31
2024/01/19 03:12:17;;;;;;;4.43;1.17;;;-1.50;99.90;;;;;;6308252;22;20015;-32
2024/01/19 03:14:43;;;;;;;8.83;1.57;;;-1.40;99.90;;;;;;6280910;22;20008;-30
2024/01/19 03:17:09;;;;;;;6.43;1.40;;;-1.20;99.90;;;;;;6308453;22;20086;-29
2024/01/19 03:19:35;;;;;;;7.10;0.90;;;-1.20;99.90;;;;;;6307559;22;20443;-30
2024/01/19 03:22:01;;;;;;;5.93;1.30;;;-1.00;99.90;;;;;;6229779;22;20095;-30
2024/01/19 03:24:26;;;;;;;7.27;1.00;;;-1.00;99.90;;;;;;6280680;22;20091;-30
2024/01/19 03:26:52;;;;;;;6.87;0.83;;;-0.70;99.90;;;;;;6205192;22;20074;-30
2024/01/19 03:29:19;;;;;;;5.43;0.90;;;-0.90;99.90;;;;;;6307783;22;20022;-32
2024/01/19 03:31:48;;;;;;;7.03;0.93;;;-0.70;99.90;;;;;;6308131;22;20082;-30
2024/01/19 03:34:14;;;;;;;5.10;0.70;;;-0.40;99.90;;;;;;6280960;22;20019;-31
2024/01/19 03:36:39;;;;;;;5.70;0.70;;;0.00;99.90;;;;;;6308066;22;20010;-31
2024/01/19 03:39:06;;;;;;;6.47;0.90;;;-0.20;99.90;;;;;;6280816;22;20499;-30
2024/01/19 03:41:32;;;;;;;4.87;1.30;;;-0.50;99.90;;;;;;6307798;22;20330;-30
2024/01/19 03:43:58;;;;;;;3.27;0.60;;;-0.50;99.90;;;;;;6308733;22;20062;-30
2024/01/19 03:46:23;;;;;;;3.83;0.43;;;-0.80;99.90;;;;;;6307692;22;20015;-30
2024/01/19 03:48:49;;;;;;;4.90;0.57;;;-0.80;99.90;;;;;;6307981;22;20022;-30
2024/01/19 03:51:15;;;;;;;5.83;0.87;;;-0.60;99.90;;;;;;6308862;22;20049;-30
2024/01/19 03:53:44;;;;;;;3.70;0.63;;;-1.20;99.90;;;;;;6307959;22;20423;-30
2024/01/19 03:56:10;;;;;;;6.60;0.73;;;-1.30;99.90;;;;;;6308032;22;20010;-30
2024/01/19 03:58:36;;;;;;;3.83;0.53;;;-1.30;99.90;;;;;;6308060;22;20019;-29
2024/01/19 04:01:03;;;;;;;3.83;0.43;;;-1.40;99.90;;;;;;6307940;22;20119;-29
2024/01/19 04:03:28;;;;;;;3.27;0.50;;;-1.40;99.90;;;;;;6281682;22;20350;-30
2024/01/19 04:05:54;;;;;;;3.53;0.60;;;-1.60;99.90;;;;;;6308002;22;20061;-30
2024/01/19 04:08:19;;;;;;;4.13;0.40;;;-1.50;99.90;;;;;;6308074;22;20058;-29
2024/01/19 04:10:45;;;;;;;8.87;1.37;;;-1.40;99.90;;;;;;6280738;22;20034;-31
2024/01/19 04:13:11;;;;;;;4.00;0.93;;;-1.30;99.90;;;;;;6307916;22;20064;-29
2024/01/19 04:15:36;;;;;;;6.73;0.97;;;-1.30;99.90;;;;;;6307807;22;20015;-29
2024/01/19 04:18:02;;;;;;;14.30;1.30;;;-1.50;99.90;;;;;;6280915;22;20087;-29
2024/01/19 04:20:28;;;;;;;9.47;1.70;;;-1.40;99.90;;;;;;6307892;22;20012;-29
2024/01/19 04:22:54;;;;;;;11.73;1.03;;;-1.50;99.90;;;;;;6307874;22;20019;-29
2024/01/19 04:25:19;;;;;;;10.93;1.30;;;-1.70;99.90;;;;;;6307909;22;20068;-29
2024/01/19 04:27:45;;;;;;;5.80;0.90;;;-1.90;99.90;;;;;;6307856;22;20319;-30
2024/01/19 04:30:11;;;;;;;11.60;0.93;;;-1.90;99.90;;;;;;6280953;22;20011;-30
2024/01/19 04:32:36;;;;;;;7.77;0.93;;;-2.00;99.90;;;;;;6309260;22;20050;-28
2024/01/19 04:35:03;;;;;;;9.00;1.00;;;-2.10;99.90;;;;;;6309718;22;20082;-28
2024/01/19 04:37:29;;;;;;;6.07;0.40;;;-2.30;99.90;;;;;;6310284;22;20068;-28
2024/01/19 04:39:54;;;;;;;9.20;1.40;;;-2.40;99.90;;;;;;6309622;22;20015;-28
2024/01/19 04:42:20;;;;;;;16.37;1.13;;;-2.40;99.90;;;;;;6309950;22;20090;-29
2024/01/19 04:44:46;;;;;;;6.77;0.70;;;-2.50;99.90;;;;;;6309526;22;20012;-28
2024/01/19 04:47:11;;;;;;;12.13;1.47;;;-2.50;99.90;;;;;;6310578;22;20015;-28
2024/01/19 04:49:37;;;;;;;5.47;0.80;;;-2.70;99.90;;;;;;6282264;22;20500;-28
2024/01/19 04:52:03;;;;;;;5.90;0.90;;;-2.80;99.90;;;;;;6282408;22;20033;-29
2024/01/19 04:54:29;;;;;;;2.40;0.43;;;-2.80;99.90;;;;;;6309413;22;20377;-28
2024/01/19 04:56:54;;;;;;;8.20;1.57;;;-2.80;99.90;;;;;;6257420;22;20019;-28
2024/01/19 04:59:20;;;;;;;7.90;1.10;;;-2.90;99.90;;;;;;6282221;22;20292;-28
2024/01/19 05:01:46;;;;;;;6.43;0.97;;;-3.10;99.90;;;;;;6282159;22;20019;-28
2024/01/19 05:04:11;;;;;;;8.40;1.30;;;-3.20;99.90;;;;;;6309778;22;20018;-27
2024/01/19 05:06:37;;;;;;;4.40;0.50;;;-3.20;99.90;;;;;;6309542;22;20011;-27
2024/01/19 05:09:03;;;;;;;4.03;0.60;;;-3.20;99.90;;;;;;6310089;22;20018;-27
2024/01/19 05:11:29;;;;;;;5.30;0.67;;;-3.20;99.90;;;;;;6281960;22;20049;-27
2024/01/19 05:13:54;;;;;;;6.57;0.80;;;-3.00;99.90;;;;;;6309997;22;20019;-27
2024/01/19 05:16:20;;;;;;;7.37;1.07;;;-2.90;99.90;;;;;;6282959;22;20011;-27
2024/01/19 05:18:46;;;;;;;8.73;0.70;;;-2.70;99.90;;;;;;6257159;22;20082;-27
2024/01/19 05:21:11;;;;;;;12.93;1.80;;;-2.30;99.90;;;;;;6309258;22;20019;-28
2024/01/19 05:23:37;;;;;;;4.37;0.53;;;-1.40;99.90;;;;;;6282008;22;20019;-27
2024/01/19 05:26:06;;;;;;;4.60;1.60;;;-1.10;99.90;;;;;;6282014;22;20074;-27
2024/01/19 05:28:36;;;;;;;12.60;0.87;;;-1.00;99.90;;;;;;6309183;22;20330;-27
2024/01/19 05:31:02;;;;;;;7.57;0.70;;;-1.10;99.90;;;;;;6309241;22;20019;-27
2024/01/19 05:33:31;;;;;;;8.20;1.60;;;-1.20;99.90;;;;;;6309888;22;20050;-27
2024/01/19 05:35:56;;;;;;;6.43;1.03;;;-1.50;99.90;;;;;;6308993;22;20315;-27
2024/01/19 05:38:22;;;;;;;6.17;0.60;;;-1.60;99.90;;;;;;6309335;22;20015;-26
2024/01/19 05:40:48;;;;;;;6.90;1.00;;;-1.80;99.90;;;;;;6205995;22;20011;-27
2024/01/19 05:43:14;;;;;;;3.20;0.43;;;-2.00;99.90;;;;;;6281570;22;20093;-27
2024/01/19 05:45:39;;;;;;;10.07;1.10;;;-2.20;99.90;;;;;;6281362;22;20022;-26
2024/01/19 05:48:05;;;;;;;7.00;0.90;;;-2.30;99.90;;;;;;6308490;22;20018;-26
2024/01/19 05:50:31;;;;;;;10.27;1.60;;;-2.30;99.90;;;;;;6308793;22;20047;-26
2024/01/19 05:52:57;;;;;;;21.50;1.90;;;-2.60;99.90;;;;;;6309651;22;20019;-26
2024/01/19 05:55:23;;;;;;;4.00;0.73;;;-2.70;99.90;;;;;;6256394;22;20369;-26
2024/01/19 05:57:49;;;;;;;6.00;0.87;;;-2.70;99.90;;;;;;6281689;22;20053;-26
2024/01/19 06:00:15;;;;;;;5.77;0.43;;;-2.70;99.90;;;;;;6255998;22;20015;-25
2024/01/19 06:02:40;;;;;;;23.77;7.27;;;-2.50;99.90;;;;;;6281529;22;20384;-25
2024/01/19 06:05:06;;;;;;;4.80;0.63;;;-2.20;99.90;;;;;;6309800;22;20015;-25
2024/01/19 06:07:33;;;;;;;1.97;0.37;;;-1.90;99.90;;;;;;6281513;22;20043;-25
2024/01/19 06:09:59;;;;;;;2.10;0.33;;;-1.70;99.90;;;;;;6281465;22;20408;-25
2024/01/19 06:12:24;;;;;;;2.87;0.40;;;-1.50;99.90;;;;;;6281401;22;20094;-25
2024/01/19 06:14:50;;;;;;;8.83;0.50;;;-1.40;99.90;;;;;;6308691;22;20015;-25
2024/01/19 06:17:16;;;;;;;6.17;0.80;;;-1.40;99.90;;;;;;6281648;22;20011;-25
2024/01/19 06:19:42;;;;;;;1.80;0.20;;;-1.40;99.90;;;;;;6255822;22;20042;-25
2024/01/19 06:22:07;;;;;;;3.90;0.60;;;-1.50;99.90;;;;;;6256074;22;20021;-25
2024/01/19 06:24:35;;;;;;;2.00;0.37;;;-1.50;99.90;;;;;;6280971;22;20086;-25
2024/01/19 06:27:01;;;;;;;0.57;0.20;;;-1.60;99.90;;;;;;6308557;22;20030;-25
2024/01/19 06:29:27;;;;;;;7.10;0.40;;;-1.60;99.90;;;;;;6308587;22;20435;-25
2024/01/19 06:31:52;;;;;;;2.10;0.50;;;-1.80;99.90;;;;;;6281236;22;20461;-25
2024/01/19 06:34:18;;;;;;;4.67;0.30;;;-2.00;99.90;;;;;;6308512;22;20015;-25
2024/01/19 06:36:45;;;;;;;10.07;0.67;;;-2.00;99.90;;;;;;6282105;22;20055;-25
2024/01/19 06:39:11;;;;;;;6.33;1.20;;;-1.90;99.90;;;;;;6281374;22;20446;-25
2024/01/19 06:41:44;;;;;;;6.60;0.80;;;-1.70;99.90;;;;;;6281074;22;20515;-25
2024/01/19 06:44:11;;;;;;;6.18;0.85;;;-1.60;99.90;;;;;;6309424;22;20137;-25
2024/01/19 06:46:37;;;;;;;5.73;0.70;;;-1.60;99.90;;;;;;6308394;22;20007;-25
2024/01/19 06:49:03;;;;;;;10.03;0.83;;;-1.60;99.90;;;;;;6308314;22;20060;-25
2024/01/19 06:51:29;;;;;;;6.40;0.77;;;-1.60;99.90;;;;;;6308321;22;20007;-25
2024/01/19 06:53:57;;;;;;;11.03;1.00;;;-1.60;99.90;;;;;;6308660;22;20082;-25
2024/01/19 06:56:23;;;;;;;10.53;1.13;;;-1.60;99.90;;;;;;6307944;22;20046;-25
2024/01/19 06:58:49;;;;;;;15.40;2.30;;;-1.60;99.90;;;;;;6309053;22;20015;-25
2024/01/19 07:01:15;;;;;;;14.27;1.33;;;-1.80;99.90;;;;;;6256304;22;20019;-25
2024/01/19 07:03:41;;;;;;;9.13;1.33;;;-1.70;99.90;;;;;;6308237;22;20011;-25
2024/01/19 07:06:06;;;;;;;10.70;1.17;;;-1.70;99.90;;;;;;6308287;22;20086;-24
2024/01/19 07:08:32;;;;;;;12.93;1.57;;;-1.70;99.90;;;;;;6281975;22;20007;-25
2024/01/19 07:10:57;;;;;;;10.60;1.03;;;-1.80;99.90;;;;;;6308162;22;20430;-24
2024/01/19 07:13:23;;;;;;;16.00;1.70;;;-1.70;99.90;;;;;;6308248;22;20291;-24
2024/01/19 07:15:49;;;;;;;19.40;4.43;;;-1.70;99.90;;;;;;6308592;22;20120;-25
2024/01/19 07:18:15;;;;;;;17.17;2.57;;;-1.70;99.90;;;;;;6280888;22;20014;-24
2024/01/19 07:20:41;;;;;;;14.77;1.43;;;-1.80;99.90;;;;;;6309166;22;20018;-24
2024/01/19 07:23:07;;;;;;;9.00;1.30;;;-1.70;99.90;;;;;;6308867;22;20019;-25
2024/01/19 07:25:33;;;;;;;14.47;1.50;;;-1.70;99.90;;;;;;6280770;22;20069;-25
2024/01/19 07:27:59;;;;;;;7.73;1.53;;;-1.70;99.90;;;;;;6308418;22;20360;-24
2024/01/19 07:30:25;;;;;;;13.17;2.33;;;-1.70;99.90;;;;;;6255425;22;20474;-24
2024/01/19 07:32:51;;;;;;;10.07;1.20;;;-1.50;99.90;;;;;;6255219;22;20442;-24
2024/01/19 07:35:17;;;;;;;10.50;1.67;;;-1.60;99.90;;;;;;6280947;22;20030;-24
2024/01/19 07:37:43;;;;;;;8.43;1.57;;;-1.60;99.90;;;;;;6308041;22;20011;-24
2024/01/19 07:40:09;;;;;;;9.17;1.30;;;-1.70;99.90;;;;;;6308409;22;20072;-25
2024/01/19 07:42:34;;;;;;;17.90;3.10;;;-1.60;99.90;;;;;;6308069;22;20082;-24
2024/01/19 07:45:00;;;;;;;9.73;1.00;;;-1.50;99.90;;;;;;6280666;22;20086;-25
2024/01/19 07:47:26;;;;;;;15.90;1.50;;;-1.40;99.90;;;;;;6308112;22;20043;-24
2024/01/19 07:49:52;;;;;;;10.63;1.17;;;-1.20;99.90;;;;;;6280583;22;20050;-24
2024/01/19 07:52:18;;;;;;;14.07;1.87;;;-1.10;99.90;;;;;;6308103;22;20027;-24
2024/01/19 07:54:44;;;;;;;8.50;1.30;;;-0.80;99.90;;;;;;6308088;22;20019;-24
2024/01/19 07:57:10;;;;;;;13.10;2.00;;;-0.90;99.90;;;;;;6307856;22;20054;-24
2024/01/19 07:59:35;;;;;;;8.77;1.23;;;-0.90;99.90;;;;;;6280374;22;20015;-24
2024/01/19 08:02:03;;;;;;;9.53;2.13;;;-0.90;99.90;;;;;;6256220;22;20050;-24
2024/01/19 08:04:29;;;;;;;8.97;1.57;;;-1.00;99.90;;;;;;6281173;22;20393;-24
2024/01/19 08:06:58;;;;;;;8.80;1.43;;;-1.10;99.90;;;;;;6282267;22;20023;-24
2024/01/19 08:09:23;;;;;;;11.77;1.47;;;-0.80;99.90;;;;;;6310664;22;20011;-24
2024/01/19 08:11:49;;;;;;;8.20;1.47;;;-1.20;99.90;;;;;;6310657;22;20011;-24
2024/01/19 08:14:15;;;;;;;8.57;1.17;;;-1.10;99.90;;;;;;6282900;22;20011;-24
2024/01/19 08:16:43;;;;;;;9.87;1.83;;;-1.30;99.90;;;;;;6282073;22;20065;-24
2024/01/19 08:19:10;;;;;;;13.07;1.43;;;-1.30;99.90;;;;;;6310544;22;20315;-24
2024/01/19 08:21:42;;;;;;;12.07;1.70;;;-1.40;99.90;;;;;;6310535;22;20022;-24
2024/01/19 08:24:08;;;;;;;6.57;1.08;;;-1.30;99.90;;;;;;6309821;22;20092;-24
2024/01/19 08:26:34;;;;;;;9.07;1.30;;;-1.50;99.90;;;;;;6282624;22;20011;-24
2024/01/19 08:29:00;;;;;;;12.93;2.03;;;-1.50;99.90;;;;;;6283470;22;20082;-24
2024/01/19 08:31:27;;;;;;;11.87;2.27;;;-1.50;99.90;;;;;;6257264;22;20082;-24
2024/01/19 08:33:53;;;;;;;6.77;1.10;;;-1.50;99.90;;;;;;6309790;22;20065;-24
2024/01/19 08:36:23;;;;;;;15.73;2.33;;;-1.50;99.90;;;;;;6309834;22;20015;-24
2024/01/19 08:38:53;;;;;;;20.57;2.50;;;-1.50;99.90;;;;;;6282796;22;20011;-24
2024/01/19 08:41:19;;;;;;;10.80;1.60;;;-1.50;99.90;;;;;;6309703;22;20007;-24
2024/01/19 08:43:45;;;;;;;15.77;1.83;;;-1.40;99.90;;;;;;6309582;22;20015;-24
2024/01/19 08:46:10;;;;;;;13.17;1.67;;;-1.40;99.90;;;;;;6282542;22;20008;-24
2024/01/19 08:48:36;;;;;;;10.23;1.70;;;-1.20;99.90;;;;;;6309459;22;20015;-24
2024/01/19 08:51:02;;;;;;;10.13;1.40;;;-1.30;99.90;;;;;;6281920;22;20019;-24
2024/01/19 08:53:28;;;;;;;17.13;2.33;;;-1.30;99.90;;;;;;6256366;22;20042;-24
2024/01/19 08:55:54;;;;;;;12.60;2.20;;;-1.20;99.90;;;;;;6282162;22;20061;-24
2024/01/19 08:58:20;;;;;;;11.53;1.83;;;-1.10;99.90;;;;;;6309481;22;20015;-24
2024/01/19 09:00:46;;;;;;;10.27;2.83;;;-1.00;99.90;;;;;;6309484;22;20022;-24
2024/01/19 09:03:12;;;;;;;14.20;1.70;;;-0.90;99.90;;;;;;6282387;22;20011;-24
2024/01/19 09:05:38;;;;;;;10.10;1.10;;;-0.90;99.90;;;;;;6309411;22;20015;-24
2024/01/19 09:08:04;;;;;;;13.50;1.97;;;-0.70;99.90;;;;;;6281820;22;20018;-24
2024/01/19 09:10:29;;;;;;;13.70;2.03;;;-0.70;99.90;;;;;;6309365;22;20011;-24
2024/01/19 09:12:58;;;;;;;10.97;1.30;;;-0.60;99.90;;;;;;6309324;22;20132;-25
2024/01/19 09:15:24;;;;;;;11.83;1.60;;;-0.40;99.90;;;;;;6281980;22;20086;-24
2024/01/19 09:17:49;;;;;;;13.63;2.20;;;-0.30;99.90;;;;;;6281440;22;20111;-25
2024/01/19 09:20:15;;;;;;;8.87;1.43;;;0.10;99.90;;;;;;6256471;22;20018;-25
2024/01/19 09:22:41;;;;;;;12.30;3.07;;;-0.10;99.90;;;;;;6309219;22;20018;-24
2024/01/19 09:25:07;;;;;;;11.70;1.30;;;-0.10;99.90;;;;;;6281930;22;20090;-24
2024/01/19 09:27:33;;;;;;;16.37;2.03;;;0.00;99.90;;;;;;6281838;22;20435;-24
2024/01/19 09:29:59;;;;;;;10.43;1.50;;;0.00;99.90;;;;;;6256467;22;20054;-24
2024/01/19 09:32:24;;;;;;;6.30;2.30;;;0.10;99.90;;;;;;6309101;22;20326;-25
2024/01/19 09:34:50;;;;;;;11.87;1.90;;;0.10;99.90;;;;;;6309471;22;20030;-25
2024/01/19 09:37:16;;;;;;;11.97;1.60;;;0.10;99.90;;;;;;6281737;22;20081;-25
2024/01/19 09:39:42;;;;;;;8.27;1.58;;;0.10;99.90;;;;;;6256496;22;20015;-25
2024/01/19 09:42:17;;;;;;;10.30;2.80;;;0.10;99.90;;;;;;6309086;22;20015;-24
2024/01/19 09:44:57;;;;;;;13.23;1.80;;;0.30;99.90;;;;;;6282804;22;20011;-24
2024/01/19 09:47:30;;;;;;;18.90;2.05;;;0.30;99.90;;;;;;6282572;22;20015;-25
2024/01/19 09:50:02;;;;;;;;;;;0.50;99.90;;;;;;6282554;22;20011;-24
2024/01/19 09:52:42;;;;;;;12.10;2.20;;;0.50;99.90;;;;;;6308851;22;19911;-25
2024/01/19 09:55:10;;;;;;;8.25;1.70;;;0.70;99.90;;;;;;6309991;22;20007;-25
2024/01/19 09:57:46;;;;;;;14.27;2.80;;;0.80;99.90;;;;;;6231228;22;20007;-25
2024/01/19 10:00:17;;;;;;;8.20;1.23;;;0.80;99.90;;;;;;6281666;22;20076;-25
2024/01/19 10:02:45;;;;;;;13.37;2.03;;;0.90;99.90;;;;;;6308979;22;20078;-25
2024/01/19 10:05:15;;;;;;;11.38;2.22;;;1.20;99.90;;;;;;6308823;22;20007;-25
2024/01/19 10:07:46;;;;;;;9.13;1.58;;;1.30;99.90;;;;;;6309468;22;20042;-25
2024/01/19 10:10:12;;;;;;;9.40;2.10;;;1.30;99.90;;;;;;6281810;22;20297;-25
2024/01/19 10:12:38;;;;;;;15.40;2.65;;;1.30;99.90;;;;;;6308713;22;20068;-24
2024/01/19 10:15:15;;;;;;;17.10;2.53;;;1.30;99.90;;;;;;6281529;22;20023;-24
2024/01/19 10:17:44;;;;;;;11.80;1.60;;;1.40;99.90;;;;;;6308627;22;20081;-24
2024/01/19 10:20:12;;;;;;;7.13;1.48;;;1.40;99.90;;;;;;6308574;22;20015;-24
2024/01/19 10:22:41;;;;;;;15.23;1.67;;;1.50;99.90;;;;;;6281243;22;20053;-24
2024/01/19 10:25:12;;;;;;;11.07;1.70;;;1.50;99.90;;;;;;6308653;22;20011;-25
2024/01/19 10:27:47;;;;;;;11.63;1.27;;;1.50;99.90;;;;;;6281291;22;20007;-24
2024/01/19 10:30:29;;;;;;;9.45;1.40;;;1.50;99.90;;;;;;6281660;22;20059;-24
2024/01/19 10:33:04;;;;;;;16.73;2.55;;;1.60;99.90;;;;;;6282374;22;20082;-24
2024/01/19 10:35:29;;;;;;;10.13;1.58;;;1.70;99.90;;;;;;6308547;22;20069;-24
2024/01/19 10:38:04;;;;;;;15.77;1.25;;;1.70;99.90;;;;;;6281244;22;20007;-24
2024/01/19 10:40:31;;;;;;;11.13;1.15;;;1.80;99.90;;;;;;6309578;22;20271;-24
2024/01/19 10:42:57;;;;;;;15.98;1.77;;;1.90;99.90;;;;;;6281238;22;20025;-24
2024/01/19 10:45:28;;;;;;;6.18;1.52;;;2.10;99.90;;;;;;6308453;22;20015;-25
2024/01/19 10:48:01;;;;;;;6.22;1.08;;;2.10;99.90;;;;;;6308796;22;20374;-25
2024/01/19 10:50:28;;;;;;;10.30;1.20;;;2.10;99.90;;;;;;6271139;22;20012;-25
2024/01/19 10:52:56;;;;;;;17.05;2.20;;;2.10;99.90;;;;;;6245467;23;20024;-26
2024/01/19 10:55:23;;;;;;;14.25;1.42;;;2.10;99.90;;;;;;6246765;23;20012;-27
2024/01/19 10:57:55;;;;;;;11.45;1.58;;;2.20;99.90;;;;;;6244818;23;20324;-28
2024/01/19 11:00:28;;;;;;;7.88;0.98;;;2.20;99.90;;;;;;6245582;23;20066;-29
2024/01/19 11:02:59;;;;;;;6.38;1.13;;;2.20;99.90;;;;;;6247405;23;20047;-28
2024/01/19 11:05:26;;;;;;;7.75;1.00;;;2.30;99.90;;;;;;6247645;23;20051;-28
2024/01/19 11:08:02;;;;;;;6.45;1.42;;;2.50;99.90;;;;;;6220246;23;20015;-28
2024/01/19 11:10:30;;;;;;;5.68;0.50;;;2.40;99.90;;;;;;6247319;23;20012;-30
2024/01/19 11:12:57;;;;;;;8.73;1.27;;;2.40;99.90;;;;;;6247609;23;20012;-29
2024/01/19 11:15:36;;;;;;;11.05;2.13;;;2.40;99.90;;;;;;6245041;23;20023;-29
2024/01/19 11:18:04;;;;;;;4.18;1.23;;;2.40;99.90;;;;;;6246947;23;20360;-30
2024/01/19 11:20:33;;;;;;;5.40;0.90;;;2.40;99.90;;;;;;6246950;23;20015;-31
2024/01/19 11:23:01;;;;;;;14.80;1.67;;;2.90;99.90;;;;;;6246600;23;20055;-32
2024/01/19 11:26:04;;;;;;;6.72;1.05;;;2.50;99.90;;;;;;6247217;23;20352;-33
2024/01/19 11:28:44;;;;;;;7.85;1.05;;;2.60;99.90;;;;;;6246826;23;20086;-34
2024/01/19 11:31:19;;;;;;;4.13;0.60;;;2.60;99.90;;;;;;6247561;23;20058;-33
2024/01/19 11:33:45;;;;;;;5.47;0.70;;;2.70;99.90;;;;;;6246083;23;20095;-35
2024/01/19 11:36:33;;;;;;;8.57;1.10;;;2.90;99.90;;;;;;6246416;23;20008;-38
2024/01/19 11:38:59;;;;;;;8.25;1.42;;;2.70;99.90;;;;;;6245366;23;20031;-36
2024/01/19 11:41:33;;;;;;;9.55;1.80;;;2.80;99.90;;;;;;6246396;23;20031;-39
2024/01/19 11:44:07;;;;;;;7.63;0.70;;;2.70;99.90;;;;;;6249614;23;20016;-38
2024/01/19 11:46:52;;;;;;;3.08;0.80;;;2.70;99.90;;;;;;6248668;22;20008;-42
2024/01/19 11:49:30;;;;;;;9.10;1.17;;;2.70;99.90;;;;;;6247309;22;20023;-42
2024/01/19 11:51:57;;;;;;;7.20;0.82;;;2.80;99.90;;;;;;6297998;22;20357;-42
2024/01/19 11:54:27;;;;;;;9.57;0.90;;;2.80;99.90;;;;;;6282393;22;20015;-42
2024/01/19 11:57:20;;;;;;;6.68;1.33;;;2.90;99.90;;;;;;6257108;22;20411;-43
2024/01/19 11:59:47;;;;;;;7.00;0.85;;;2.90;99.90;;;;;;6257244;22;20500;-43
2024/01/19 12:02:30;;;;;;;7.43;1.05;;;2.90;99.90;;;;;;6310769;22;20015;-43
2024/01/19 12:04:59;;;;;;;3.53;1.10;;;2.90;99.90;;;;;;6310400;22;20064;-44
2024/01/19 12:07:25;;;;;;;6.95;1.23;;;3.00;99.90;;;;;;6310987;22;20011;-43
2024/01/19 12:10:20;;;;;;;5.50;1.10;;;3.00;99.90;;;;;;6257069;22;20019;-44
2024/01/19 12:12:47;;;;;;;8.57;1.00;;;3.00;99.90;;;;;;6283590;22;20407;-43
2024/01/19 12:15:16;;;;;;;8.73;0.98;;;3.10;99.90;;;;;;6282893;22;20015;-44
2024/01/19 12:17:43;;;;;;;5.03;0.82;;;3.10;99.90;;;;;;6309717;22;20073;-44
2024/01/19 12:20:18;;;;;;;7.80;1.60;;;3.20;99.90;;;;;;6282545;22;20082;-43
2024/01/19 12:22:53;;;;;;;5.82;0.88;;;3.20;99.90;;;;;;6256934;22;20015;-44
2024/01/19 12:25:21;;;;;;;5.88;0.95;;;3.20;99.90;;;;;;6310548;22;20042;-43
2024/01/19 12:27:48;;;;;;;5.50;1.02;;;3.20;99.90;;;;;;6282625;22;20011;-42
2024/01/19 12:30:16;;;;;;;4.72;0.93;;;3.20;99.90;;;;;;6310023;22;20015;-42
2024/01/19 12:32:43;;;;;;;4.20;1.48;;;3.20;99.90;;;;;;6309656;22;20025;-42
2024/01/19 12:35:11;;;;;;;9.68;1.00;;;3.20;99.90;;;;;;6309728;22;20056;-42
2024/01/19 12:37:37;;;;;;;8.30;0.68;;;3.30;99.90;;;;;;6282837;22;20086;-42
2024/01/19 12:40:12;;;;;;;6.07;0.80;;;3.40;99.90;;;;;;6310680;22;20050;-43
2024/01/19 12:42:38;;;;;;;5.05;0.98;;;3.50;99.90;;;;;;6309605;22;20011;-41
2024/01/19 12:45:04;;;;;;;3.45;0.70;;;3.80;99.90;;;;;;6256854;22;20015;-42
2024/01/19 12:47:30;;;;;;;5.88;0.70;;;4.00;99.90;;;;;;6309573;22;20019;-41
2024/01/19 12:49:58;;;;;;;10.68;0.80;;;4.10;99.90;;;;;;6282184;22;20015;-40